sensor_id;sensor_type;location;lat;lon;timestamp;temperature;humidity
20057;DHT22;10189;49.546;7.906;2023-04-03T00:01:15;1.70;79.20
20057;DHT22;10189;49.546;7.906;2023-04-03T00:03:42;1.60;79.20
20057;DHT22;10189;49.546;7.906;2023-04-03T00:06:08;1.50;79.60
20057;DHT22;10189;49.546;7.906;2023-04-03T00:08:37;1.40;80.20
20057;DHT22;10189;49.546;7.906;2023-04-03T00:11:04;1.30;80.80
20057;DHT22;10189;49.546;7.906;2023-04-03T00:13:31;1.20;81.00
20057;DHT22;10189;49.546;7.906;2023-04-03T00:15:58;1.10;81.80
20057;DHT22;10189;49.546;7.906;2023-04-03T00:18:24;0.90;82.10
20057;DHT22;10189;49.546;7.906;2023-04-03T00:20:50;0.90;82.00
20057;DHT22;10189;49.546;7.906;2023-04-03T00:23:16;0.90;81.70
20057;DHT22;10189;49.546;7.906;2023-04-03T00:25:42;0.80;82.30
20057;DHT22;10189;49.546;7.906;2023-04-03T00:28:08;0.80;82.40
20057;DHT22;10189;49.546;7.906;2023-04-03T00:30:35;0.80;82.60
20057;DHT22;10189;49.546;7.906;2023-04-03T00:33:01;0.80;82.30
20057;DHT22;10189;49.546;7.906;2023-04-03T00:35:27;0.70;83.10
20057;DHT22;10189;49.546;7.906;2023-04-03T00:37:54;0.60;83.30
20057;DHT22;10189;49.546;7.906;2023-04-03T00:40:23;0.60;83.10
20057;DHT22;10189;49.546;7.906;2023-04-03T00:42:57;0.60;83.50
20057;DHT22;10189;49.546;7.906;2023-04-03T00:45:38;0.50;84.30
20057;DHT22;10189;49.546;7.906;2023-04-03T00:48:09;0.50;85.00
20057;DHT22;10189;49.546;7.906;2023-04-03T00:50:40;0.40;85.30
20057;DHT22;10189;49.546;7.906;2023-04-03T00:53:14;0.40;85.00
20057;DHT22;10189;49.546;7.906;2023-04-03T00:55:44;0.30;85.80
20057;DHT22;10189;49.546;7.906;2023-04-03T00:58:15;0.20;86.40
20057;DHT22;10189;49.546;7.906;2023-04-03T01:00:48;0.20;87.10
20057;DHT22;10189;49.546;7.906;2023-04-03T01:03:22;0.00;87.70
20057;DHT22;10189;49.546;7.906;2023-04-03T01:05:48;0.00;88.00
20057;DHT22;10189;49.546;7.906;2023-04-03T01:08:14;0.00;88.00
20057;DHT22;10189;49.546;7.906;2023-04-03T01:10:40;0.00;88.50
20057;DHT22;10189;49.546;7.906;2023-04-03T01:13:28;0.00;88.80
20057;DHT22;10189;49.546;7.906;2023-04-03T01:15:56;-0.10;89.20
20057;DHT22;10189;49.546;7.906;2023-04-03T01:18:24;-0.10;89.20
20057;DHT22;10189;49.546;7.906;2023-04-03T01:26:24;-0.20;91.40
20057;DHT22;10189;49.546;7.906;2023-04-03T01:28:53;-0.30;91.40
20057;DHT22;10189;49.546;7.906;2023-04-03T01:31:31;-0.30;91.90
20057;DHT22;10189;49.546;7.906;2023-04-03T01:34:37;-0.40;92.40
20057;DHT22;10189;49.546;7.906;2023-04-03T01:37:03;-0.40;93.10
20057;DHT22;10189;49.546;7.906;2023-04-03T01:39:30;-0.50;93.60
20057;DHT22;10189;49.546;7.906;2023-04-03T01:41:56;-0.40;94.20
20057;DHT22;10189;49.546;7.906;2023-04-03T01:44:29;-0.50;94.10
20057;DHT22;10189;49.546;7.906;2023-04-03T01:46:55;-0.50;94.60
20057;DHT22;10189;49.546;7.906;2023-04-03T01:49:23;-0.50;95.10
20057;DHT22;10189;49.546;7.906;2023-04-03T01:51:49;-0.60;95.30
20057;DHT22;10189;49.546;7.906;2023-04-03T01:54:15;-0.60;95.70
20057;DHT22;10189;49.546;7.906;2023-04-03T01:56:41;-0.60;95.90
20057;DHT22;10189;49.546;7.906;2023-04-03T01:59:09;-0.60;96.40
20057;DHT22;10189;49.546;7.906;2023-04-03T02:01:35;-0.60;96.70
20057;DHT22;10189;49.546;7.906;2023-04-03T02:04:01;-0.60;96.90
20057;DHT22;10189;49.546;7.906;2023-04-03T02:06:27;-0.70;97.10
20057;DHT22;10189;49.546;7.906;2023-04-03T02:08:53;-0.60;97.00
20057;DHT22;10189;49.546;7.906;2023-04-03T02:11:19;-0.60;97.30
20057;DHT22;10189;49.546;7.906;2023-04-03T02:13:45;-0.50;96.70
20057;DHT22;10189;49.546;7.906;2023-04-03T02:16:11;-0.50;96.70
20057;DHT22;10189;49.546;7.906;2023-04-03T02:18:38;-0.50;96.50
20057;DHT22;10189;49.546;7.906;2023-04-03T02:21:04;-0.60;96.70
20057;DHT22;10189;49.546;7.906;2023-04-03T02:23:31;-0.60;97.20
20057;DHT22;10189;49.546;7.906;2023-04-03T02:26:10;-0.70;97.00
20057;DHT22;10189;49.546;7.906;2023-04-03T02:28:37;-0.60;97.50
20057;DHT22;10189;49.546;7.906;2023-04-03T02:31:05;-0.70;97.30
20057;DHT22;10189;49.546;7.906;2023-04-03T02:33:32;-0.70;98.00
20057;DHT22;10189;49.546;7.906;2023-04-03T02:35:59;-0.70;97.50
20057;DHT22;10189;49.546;7.906;2023-04-03T02:38:25;-0.70;97.30
20057;DHT22;10189;49.546;7.906;2023-04-03T02:40:52;-0.70;97.40
20057;DHT22;10189;49.546;7.906;2023-04-03T02:43:18;-0.70;98.00
20057;DHT22;10189;49.546;7.906;2023-04-03T02:45:44;-0.70;97.70
20057;DHT22;10189;49.546;7.906;2023-04-03T02:48:10;-0.70;97.30
20057;DHT22;10189;49.546;7.906;2023-04-03T02:50:37;-0.70;96.90
20057;DHT22;10189;49.546;7.906;2023-04-03T02:53:03;-0.70;97.40
20057;DHT22;10189;49.546;7.906;2023-04-03T02:55:29;-0.70;96.60
20057;DHT22;10189;49.546;7.906;2023-04-03T02:57:56;-0.70;96.80
20057;DHT22;10189;49.546;7.906;2023-04-03T03:00:22;-0.80;97.40
20057;DHT22;10189;49.546;7.906;2023-04-03T03:02:49;-0.70;96.70
20057;DHT22;10189;49.546;7.906;2023-04-03T03:05:15;-0.80;96.10
20057;DHT22;10189;49.546;7.906;2023-04-03T03:07:41;-0.80;96.40
20057;DHT22;10189;49.546;7.906;2023-04-03T03:10:07;-0.80;96.50
20057;DHT22;10189;49.546;7.906;2023-04-03T03:12:34;-0.90;96.50
20057;DHT22;10189;49.546;7.906;2023-04-03T03:15:00;-0.80;95.60
20057;DHT22;10189;49.546;7.906;2023-04-03T03:17:26;-0.70;94.50
20057;DHT22;10189;49.546;7.906;2023-04-03T03:19:52;-0.60;93.10
20057;DHT22;10189;49.546;7.906;2023-04-03T03:22:18;-0.60;92.90
20057;DHT22;10189;49.546;7.906;2023-04-03T03:24:44;-0.70;93.20
20057;DHT22;10189;49.546;7.906;2023-04-03T03:27:10;-0.70;93.00
20057;DHT22;10189;49.546;7.906;2023-04-03T03:29:37;-0.70;92.70
20057;DHT22;10189;49.546;7.906;2023-04-03T03:32:04;-0.70;93.40
20057;DHT22;10189;49.546;7.906;2023-04-03T03:34:30;-0.70;93.30
20057;DHT22;10189;49.546;7.906;2023-04-03T03:36:56;-0.80;93.00
20057;DHT22;10189;49.546;7.906;2023-04-03T03:39:22;-0.70;92.50
20057;DHT22;10189;49.546;7.906;2023-04-03T03:41:48;-0.70;92.10
20057;DHT22;10189;49.546;7.906;2023-04-03T03:44:15;-0.80;92.20
20057;DHT22;10189;49.546;7.906;2023-04-03T03:46:41;-0.80;93.00
20057;DHT22;10189;49.546;7.906;2023-04-03T03:49:07;-0.90;93.50
20057;DHT22;10189;49.546;7.906;2023-04-03T03:51:34;-1.00;94.00
20057;DHT22;10189;49.546;7.906;2023-04-03T03:54:00;-0.90;93.60
20057;DHT22;10189;49.546;7.906;2023-04-03T03:56:26;-1.00;93.60
20057;DHT22;10189;49.546;7.906;2023-04-03T03:58:53;-0.90;93.90
20057;DHT22;10189;49.546;7.906;2023-04-03T04:01:20;-0.90;93.40
20057;DHT22;10189;49.546;7.906;2023-04-03T04:03:48;-0.90;93.90
20057;DHT22;10189;49.546;7.906;2023-04-03T04:06:18;-0.90;93.70
20057;DHT22;10189;49.546;7.906;2023-04-03T04:08:45;-1.00;94.00
20057;DHT22;10189;49.546;7.906;2023-04-03T04:11:12;-1.00;94.60
20057;DHT22;10189;49.546;7.906;2023-04-03T04:13:40;-1.00;94.80
20057;DHT22;10189;49.546;7.906;2023-04-03T04:16:08;-1.10;94.90
20057;DHT22;10189;49.546;7.906;2023-04-03T04:18:35;-1.00;94.60
20057;DHT22;10189;49.546;7.906;2023-04-03T04:21:01;-0.90;93.40
20057;DHT22;10189;49.546;7.906;2023-04-03T04:23:27;-0.90;93.30
20057;DHT22;10189;49.546;7.906;2023-04-03T04:25:53;-0.80;93.20
20057;DHT22;10189;49.546;7.906;2023-04-03T04:28:20;-0.80;93.20
20057;DHT22;10189;49.546;7.906;2023-04-03T04:30:50;-0.90;93.10
20057;DHT22;10189;49.546;7.906;2023-04-03T04:33:17;-0.90;93.70
20057;DHT22;10189;49.546;7.906;2023-04-03T04:35:44;-0.90;93.50
20057;DHT22;10189;49.546;7.906;2023-04-03T04:38:13;-0.90;92.90
20057;DHT22;10189;49.546;7.906;2023-04-03T04:40:39;-0.90;93.10
20057;DHT22;10189;49.546;7.906;2023-04-03T04:43:06;-1.00;93.60
20057;DHT22;10189;49.546;7.906;2023-04-03T04:45:32;-1.10;93.70
20057;DHT22;10189;49.546;7.906;2023-04-03T04:47:58;-1.10;93.40
20057;DHT22;10189;49.546;7.906;2023-04-03T04:50:25;-1.00;93.20
20057;DHT22;10189;49.546;7.906;2023-04-03T04:52:52;-1.00;93.00
20057;DHT22;10189;49.546;7.906;2023-04-03T04:55:18;-0.90;92.50
20057;DHT22;10189;49.546;7.906;2023-04-03T04:57:44;-0.80;91.90
20057;DHT22;10189;49.546;7.906;2023-04-03T05:00:11;-0.80;91.70
20057;DHT22;10189;49.546;7.906;2023-04-03T05:02:38;-0.80;92.20
20057;DHT22;10189;49.546;7.906;2023-04-03T05:05:05;-0.80;92.00
20057;DHT22;10189;49.546;7.906;2023-04-03T05:07:32;-0.90;92.80
20057;DHT22;10189;49.546;7.906;2023-04-03T05:09:59;-0.90;93.30
20057;DHT22;10189;49.546;7.906;2023-04-03T05:12:25;-0.90;93.40
20057;DHT22;10189;49.546;7.906;2023-04-03T05:14:57;-0.90;94.00
20057;DHT22;10189;49.546;7.906;2023-04-03T05:17:24;-0.90;94.50
20057;DHT22;10189;49.546;7.906;2023-04-03T05:19:54;-0.90;95.30
20057;DHT22;10189;49.546;7.906;2023-04-03T05:22:21;-0.90;95.50
20057;DHT22;10189;49.546;7.906;2023-04-03T05:24:48;-0.80;95.70
20057;DHT22;10189;49.546;7.906;2023-04-03T05:27:15;-0.90;95.80
20057;DHT22;10189;49.546;7.906;2023-04-03T05:29:46;-0.90;96.60
20057;DHT22;10189;49.546;7.906;2023-04-03T05:32:17;-1.00;97.10
20057;DHT22;10189;49.546;7.906;2023-04-03T05:34:47;-1.10;97.30
20057;DHT22;10189;49.546;7.906;2023-04-03T05:37:13;-1.10;98.10
20057;DHT22;10189;49.546;7.906;2023-04-03T05:39:40;-1.10;98.70
20057;DHT22;10189;49.546;7.906;2023-04-03T05:42:07;-1.00;99.30
20057;DHT22;10189;49.546;7.906;2023-04-03T05:44:33;-0.90;99.20
20057;DHT22;10189;49.546;7.906;2023-04-03T05:47:00;-0.90;99.20
20057;DHT22;10189;49.546;7.906;2023-04-03T05:49:26;-0.80;99.90
20057;DHT22;10189;49.546;7.906;2023-04-03T05:51:52;-0.70;99.90
20057;DHT22;10189;49.546;7.906;2023-04-03T05:54:28;-0.60;99.90
20057;DHT22;10189;49.546;7.906;2023-04-03T05:57:08;-0.40;99.50
20057;DHT22;10189;49.546;7.906;2023-04-03T05:59:34;-0.40;99.40
20057;DHT22;10189;49.546;7.906;2023-04-03T06:02:00;-0.20;99.00
20057;DHT22;10189;49.546;7.906;2023-04-03T06:04:27;-0.20;98.70
20057;DHT22;10189;49.546;7.906;2023-04-03T06:06:56;0.00;98.30
20057;DHT22;10189;49.546;7.906;2023-04-03T06:09:26;0.20;97.70
20057;DHT22;10189;49.546;7.906;2023-04-03T06:11:54;0.40;96.70
20057;DHT22;10189;49.546;7.906;2023-04-03T06:14:23;0.50;96.40
20057;DHT22;10189;49.546;7.906;2023-04-03T06:16:48;0.60;95.10
20057;DHT22;10189;49.546;7.906;2023-04-03T06:19:15;0.80;95.30
20057;DHT22;10189;49.546;7.906;2023-04-03T06:21:46;0.90;94.80
20057;DHT22;10189;49.546;7.906;2023-04-03T06:24:15;1.10;93.90
20057;DHT22;10189;49.546;7.906;2023-04-03T06:26:42;1.20;92.30
20057;DHT22;10189;49.546;7.906;2023-04-03T06:29:09;1.30;91.50
20057;DHT22;10189;49.546;7.906;2023-04-03T06:31:35;1.40;91.10
20057;DHT22;10189;49.546;7.906;2023-04-03T06:34:02;1.50;90.20
20057;DHT22;10189;49.546;7.906;2023-04-03T06:36:29;1.40;90.50
20057;DHT22;10189;49.546;7.906;2023-04-03T06:38:55;1.40;90.20
20057;DHT22;10189;49.546;7.906;2023-04-03T06:41:21;1.30;90.70
20057;DHT22;10189;49.546;7.906;2023-04-03T06:43:47;1.30;90.70
20057;DHT22;10189;49.546;7.906;2023-04-03T06:46:18;1.40;91.10
20057;DHT22;10189;49.546;7.906;2023-04-03T06:48:46;1.40;90.60
20057;DHT22;10189;49.546;7.906;2023-04-03T06:51:27;1.50;90.20
20057;DHT22;10189;49.546;7.906;2023-04-03T06:53:57;1.70;91.10
20057;DHT22;10189;49.546;7.906;2023-04-03T06:56:24;1.70;89.60
20057;DHT22;10189;49.546;7.906;2023-04-03T06:58:52;1.90;90.00
20057;DHT22;10189;49.546;7.906;2023-04-03T07:01:25;2.10;90.90
20057;DHT22;10189;49.546;7.906;2023-04-03T07:03:53;2.20;88.40
20057;DHT22;10189;49.546;7.906;2023-04-03T07:06:19;2.30;87.80
20057;DHT22;10189;49.546;7.906;2023-04-03T07:08:45;2.30;87.80
20057;DHT22;10189;49.546;7.906;2023-04-03T07:11:14;2.30;87.40
20057;DHT22;10189;49.546;7.906;2023-04-03T07:13:40;2.30;87.60
20057;DHT22;10189;49.546;7.906;2023-04-03T07:16:07;2.30;87.40
20057;DHT22;10189;49.546;7.906;2023-04-03T07:18:34;2.30;86.00
20057;DHT22;10189;49.546;7.906;2023-04-03T07:21:01;2.30;87.20
20057;DHT22;10189;49.546;7.906;2023-04-03T07:23:27;2.40;85.90
20057;DHT22;10189;49.546;7.906;2023-04-03T07:25:53;2.30;86.30
20057;DHT22;10189;49.546;7.906;2023-04-03T07:28:20;2.40;85.20
20057;DHT22;10189;49.546;7.906;2023-04-03T07:30:53;2.40;86.50
20057;DHT22;10189;49.546;7.906;2023-04-03T07:33:25;2.50;86.00
20057;DHT22;10189;49.546;7.906;2023-04-03T07:35:52;2.80;84.50
20057;DHT22;10189;49.546;7.906;2023-04-03T07:38:18;2.70;83.90
20057;DHT22;10189;49.546;7.906;2023-04-03T07:40:48;2.70;84.10
20057;DHT22;10189;49.546;7.906;2023-04-03T07:43:16;2.90;84.50
20057;DHT22;10189;49.546;7.906;2023-04-03T07:45:43;3.10;84.20
20057;DHT22;10189;49.546;7.906;2023-04-03T07:48:12;3.30;82.70
20057;DHT22;10189;49.546;7.906;2023-04-03T07:50:41;3.40;80.80
20057;DHT22;10189;49.546;7.906;2023-04-03T07:53:08;3.40;82.60
20057;DHT22;10189;49.546;7.906;2023-04-03T07:55:34;3.30;80.20
20057;DHT22;10189;49.546;7.906;2023-04-03T07:58:09;3.20;82.90
20057;DHT22;10189;49.546;7.906;2023-04-03T08:00:40;3.30;80.90
20057;DHT22;10189;49.546;7.906;2023-04-03T08:03:07;3.40;81.70
20057;DHT22;10189;49.546;7.906;2023-04-03T08:05:42;3.50;81.70
20057;DHT22;10189;49.546;7.906;2023-04-03T08:08:12;3.70;81.10
20057;DHT22;10189;49.546;7.906;2023-04-03T08:10:40;3.70;80.00
20057;DHT22;10189;49.546;7.906;2023-04-03T08:13:07;3.80;81.80
20057;DHT22;10189;49.546;7.906;2023-04-03T08:15:35;3.90;80.20
20057;DHT22;10189;49.546;7.906;2023-04-03T08:18:03;4.00;80.80
20057;DHT22;10189;49.546;7.906;2023-04-03T08:20:29;4.10;78.10
20057;DHT22;10189;49.546;7.906;2023-04-03T08:22:55;4.00;78.70
20057;DHT22;10189;49.546;7.906;2023-04-03T08:25:22;4.10;78.90
20057;DHT22;10189;49.546;7.906;2023-04-03T08:27:47;4.20;78.60
20057;DHT22;10189;49.546;7.906;2023-04-03T08:30:14;4.20;79.10
20057;DHT22;10189;49.546;7.906;2023-04-03T08:32:40;4.40;80.60
20057;DHT22;10189;49.546;7.906;2023-04-03T08:35:08;4.50;76.00
20057;DHT22;10189;49.546;7.906;2023-04-03T08:37:38;4.40;76.10
20057;DHT22;10189;49.546;7.906;2023-04-03T08:40:07;4.70;79.10
20057;DHT22;10189;49.546;7.906;2023-04-03T08:48:45;4.10;75.90
20057;DHT22;10189;49.546;7.906;2023-04-03T08:51:10;4.00;75.30
20057;DHT22;10189;49.546;7.906;2023-04-03T08:53:45;4.00;77.80
20057;DHT22;10189;49.546;7.906;2023-04-03T08:56:31;4.10;77.40
20057;DHT22;10189;49.546;7.906;2023-04-03T08:59:05;4.30;74.70
20057;DHT22;10189;49.546;7.906;2023-04-03T09:01:40;4.10;74.50
20057;DHT22;10189;49.546;7.906;2023-04-03T09:04:17;4.20;76.00
20057;DHT22;10189;49.546;7.906;2023-04-03T09:06:46;4.20;71.10
20057;DHT22;10189;49.546;7.906;2023-04-03T09:09:34;3.90;73.30
20057;DHT22;10189;49.546;7.906;2023-04-03T09:12:27;3.90;73.40
20057;DHT22;10189;49.546;7.906;2023-04-03T09:15:20;3.90;73.20
20057;DHT22;10189;49.546;7.906;2023-04-03T09:18:05;3.80;72.70
20057;DHT22;10189;49.546;7.906;2023-04-03T09:23:58;4.40;73.30
20057;DHT22;10189;49.546;7.906;2023-04-03T09:26:33;4.60;70.40
20057;DHT22;10189;49.546;7.906;2023-04-03T09:29:06;4.50;69.90
20057;DHT22;10189;49.546;7.906;2023-04-03T09:31:39;4.40;70.00
20057;DHT22;10189;49.546;7.906;2023-04-03T09:34:26;4.50;70.10
20057;DHT22;10189;49.546;7.906;2023-04-03T09:36:56;4.50;70.40
20057;DHT22;10189;49.546;7.906;2023-04-03T09:39:47;4.80;69.10
20057;DHT22;10189;49.546;7.906;2023-04-03T09:42:25;5.20;66.50
20057;DHT22;10189;49.546;7.906;2023-04-03T09:45:03;5.60;66.20
20057;DHT22;10189;49.546;7.906;2023-04-03T09:47:35;5.30;64.00
20057;DHT22;10189;49.546;7.906;2023-04-03T09:52:40;4.90;67.60
20057;DHT22;10189;49.546;7.906;2023-04-03T09:57:59;4.90;66.80
20057;DHT22;10189;49.546;7.906;2023-04-03T10:00:31;4.70;64.60
20057;DHT22;10189;49.546;7.906;2023-04-03T10:02:59;4.80;65.80
20057;DHT22;10189;49.546;7.906;2023-04-03T10:08:19;4.60;67.80
20057;DHT22;10189;49.546;7.906;2023-04-03T10:11:14;4.90;64.50
20057;DHT22;10189;49.546;7.906;2023-04-03T10:13:56;5.40;63.50
20057;DHT22;10189;49.546;7.906;2023-04-03T10:16:46;5.40;60.90
20057;DHT22;10189;49.546;7.906;2023-04-03T10:22:07;5.10;61.20
20057;DHT22;10189;49.546;7.906;2023-04-03T10:25:15;5.50;62.80
20057;DHT22;10189;49.546;7.906;2023-04-03T10:28:20;5.30;60.30
20057;DHT22;10189;49.546;7.906;2023-04-03T10:37:06;4.60;63.20
20057;DHT22;10189;49.546;7.906;2023-04-03T10:43:08;4.60;62.20
20057;DHT22;10189;49.546;7.906;2023-04-03T10:46:04;4.60;63.50
20057;DHT22;10189;49.546;7.906;2023-04-03T10:48:47;4.80;63.00
20057;DHT22;10189;49.546;7.906;2023-04-03T10:54:24;4.90;63.50
20057;DHT22;10189;49.546;7.906;2023-04-03T10:59:33;5.10;60.90
20057;DHT22;10189;49.546;7.906;2023-04-03T11:02:31;5.00;61.80
20057;DHT22;10189;49.546;7.906;2023-04-03T11:08:04;5.20;59.90
20057;DHT22;10189;49.546;7.906;2023-04-03T11:10:42;5.30;59.00
20057;DHT22;10189;49.546;7.906;2023-04-03T11:13:21;5.30;58.30
20057;DHT22;10189;49.546;7.906;2023-04-03T11:16:09;5.10;58.30
20057;DHT22;10189;49.546;7.906;2023-04-03T11:18:52;4.90;60.20
20057;DHT22;10189;49.546;7.906;2023-04-03T11:21:56;4.90;59.00
20057;DHT22;10189;49.546;7.906;2023-04-03T11:24:31;5.00;59.10
20057;DHT22;10189;49.546;7.906;2023-04-03T11:26:58;5.40;58.10
20057;DHT22;10189;49.546;7.906;2023-04-03T11:29:34;5.60;57.40
20057;DHT22;10189;49.546;7.906;2023-04-03T11:34:49;5.60;58.30
20057;DHT22;10189;49.546;7.906;2023-04-03T11:40:29;5.00;61.40
20057;DHT22;10189;49.546;7.906;2023-04-03T11:43:40;5.10;58.10
20057;DHT22;10189;49.546;7.906;2023-04-03T11:46:18;5.20;56.80
20057;DHT22;10189;49.546;7.906;2023-04-03T11:48:46;5.30;56.80
20057;DHT22;10189;49.546;7.906;2023-04-03T11:53:43;5.50;56.80
20057;DHT22;10189;49.546;7.906;2023-04-03T12:02:01;5.60;54.50
20057;DHT22;10189;49.546;7.906;2023-04-03T12:04:28;5.60;54.90
20057;DHT22;10189;49.546;7.906;2023-04-03T12:07:12;5.70;57.10
20057;DHT22;10189;49.546;7.906;2023-04-03T12:12:55;6.20;55.10
20057;DHT22;10189;49.546;7.906;2023-04-03T12:15:47;6.00;55.70
20057;DHT22;10189;49.546;7.906;2023-04-03T12:21:07;6.00;56.40
20057;DHT22;10189;49.546;7.906;2023-04-03T12:23:36;5.80;54.70
20057;DHT22;10189;49.546;7.906;2023-04-03T12:26:23;5.80;56.50
20057;DHT22;10189;49.546;7.906;2023-04-03T12:28:53;6.20;53.80
20057;DHT22;10189;49.546;7.906;2023-04-03T12:31:23;6.30;53.10
20057;DHT22;10189;49.546;7.906;2023-04-03T12:34:45;6.30;52.50
20057;DHT22;10189;49.546;7.906;2023-04-03T12:45:44;5.80;54.60
20057;DHT22;10189;49.546;7.906;2023-04-03T12:48:24;5.80;54.80
20057;DHT22;10189;49.546;7.906;2023-04-03T12:50:53;6.00;55.70
20057;DHT22;10189;49.546;7.906;2023-04-03T12:53:28;6.00;55.40
20057;DHT22;10189;49.546;7.906;2023-04-03T12:58:48;5.50;56.60
20057;DHT22;10189;49.546;7.906;2023-04-03T13:01:22;5.50;57.00
20057;DHT22;10189;49.546;7.906;2023-04-03T13:03:54;5.50;57.40
20057;DHT22;10189;49.546;7.906;2023-04-03T13:06:37;5.60;56.60
20057;DHT22;10189;49.546;7.906;2023-04-03T13:09:14;5.70;56.00
20057;DHT22;10189;49.546;7.906;2023-04-03T13:12:10;5.60;57.60
20057;DHT22;10189;49.546;7.906;2023-04-03T13:14:37;5.70;57.00
20057;DHT22;10189;49.546;7.906;2023-04-03T13:17:14;5.70;57.20
20057;DHT22;10189;49.546;7.906;2023-04-03T13:19:43;5.60;57.60
20057;DHT22;10189;49.546;7.906;2023-04-03T13:22:34;5.80;57.80
20057;DHT22;10189;49.546;7.906;2023-04-03T13:25:11;6.00;56.70
20057;DHT22;10189;49.546;7.906;2023-04-03T13:27:40;5.90;55.90
20057;DHT22;10189;49.546;7.906;2023-04-03T13:32:55;5.90;55.30
20057;DHT22;10189;49.546;7.906;2023-04-03T13:38:01;5.80;55.70
20057;DHT22;10189;49.546;7.906;2023-04-03T13:40:56;5.60;55.70
20057;DHT22;10189;49.546;7.906;2023-04-03T13:43:35;5.70;55.50
20057;DHT22;10189;49.546;7.906;2023-04-03T13:46:23;5.80;56.40
20057;DHT22;10189;49.546;7.906;2023-04-03T13:48:55;5.90;54.30
20057;DHT22;10189;49.546;7.906;2023-04-03T13:51:28;5.80;53.20
20057;DHT22;10189;49.546;7.906;2023-04-03T13:53:58;5.60;54.70
20057;DHT22;10189;49.546;7.906;2023-04-03T13:56:35;5.90;53.30
20057;DHT22;10189;49.546;7.906;2023-04-03T14:01:46;6.50;51.30
20057;DHT22;10189;49.546;7.906;2023-04-03T14:04:20;6.40;52.30
20057;DHT22;10189;49.546;7.906;2023-04-03T14:06:51;6.30;52.30
20057;DHT22;10189;49.546;7.906;2023-04-03T14:09:19;6.20;55.00
20057;DHT22;10189;49.546;7.906;2023-04-03T14:11:47;6.20;54.00
20057;DHT22;10189;49.546;7.906;2023-04-03T14:14:23;6.10;53.50
20057;DHT22;10189;49.546;7.906;2023-04-03T14:16:56;5.90;53.20
20057;DHT22;10189;49.546;7.906;2023-04-03T14:19:26;6.10;52.90
20057;DHT22;10189;49.546;7.906;2023-04-03T14:21:58;6.30;52.20
20057;DHT22;10189;49.546;7.906;2023-04-03T14:24:25;6.30;53.30
20057;DHT22;10189;49.546;7.906;2023-04-03T14:26:54;6.20;51.10
20057;DHT22;10189;49.546;7.906;2023-04-03T14:29:22;5.80;51.40
20057;DHT22;10189;49.546;7.906;2023-04-03T14:31:49;5.70;52.80
20057;DHT22;10189;49.546;7.906;2023-04-03T14:34:16;5.60;53.10
20057;DHT22;10189;49.546;7.906;2023-04-03T14:36:44;5.50;52.30
20057;DHT22;10189;49.546;7.906;2023-04-03T14:39:17;5.30;53.70
20057;DHT22;10189;49.546;7.906;2023-04-03T14:41:48;5.40;55.10
20057;DHT22;10189;49.546;7.906;2023-04-03T14:44:14;5.70;54.60
20057;DHT22;10189;49.546;7.906;2023-04-03T14:46:43;6.00;50.80
20057;DHT22;10189;49.546;7.906;2023-04-03T14:49:15;6.20;50.30
20057;DHT22;10189;49.546;7.906;2023-04-03T14:51:46;6.30;51.30
20057;DHT22;10189;49.546;7.906;2023-04-03T14:54:18;6.20;47.60
20057;DHT22;10189;49.546;7.906;2023-04-03T14:56:51;6.20;48.20
20057;DHT22;10189;49.546;7.906;2023-04-03T14:59:18;6.20;46.80
20057;DHT22;10189;49.546;7.906;2023-04-03T15:01:45;6.10;45.20
20057;DHT22;10189;49.546;7.906;2023-04-03T15:04:19;6.00;45.40
20057;DHT22;10189;49.546;7.906;2023-04-03T15:06:47;5.80;46.00
20057;DHT22;10189;49.546;7.906;2023-04-03T15:09:25;5.80;44.50
20057;DHT22;10189;49.546;7.906;2023-04-03T15:11:54;5.90;44.30
20057;DHT22;10189;49.546;7.906;2023-04-03T15:14:20;6.00;44.80
20057;DHT22;10189;49.546;7.906;2023-04-03T15:16:47;6.10;44.90
20057;DHT22;10189;49.546;7.906;2023-04-03T15:19:14;6.10;45.50
20057;DHT22;10189;49.546;7.906;2023-04-03T15:21:40;5.90;45.50
20057;DHT22;10189;49.546;7.906;2023-04-03T15:24:06;5.90;46.30
20057;DHT22;10189;49.546;7.906;2023-04-03T15:26:32;6.00;47.80
20057;DHT22;10189;49.546;7.906;2023-04-03T15:28:58;6.10;49.20
20057;DHT22;10189;49.546;7.906;2023-04-03T15:31:24;6.20;47.90
20057;DHT22;10189;49.546;7.906;2023-04-03T15:33:50;6.10;44.50
20057;DHT22;10189;49.546;7.906;2023-04-03T15:36:16;5.90;44.90
20057;DHT22;10189;49.546;7.906;2023-04-03T15:38:42;5.80;45.00
20057;DHT22;10189;49.546;7.906;2023-04-03T15:41:08;5.70;44.10
20057;DHT22;10189;49.546;7.906;2023-04-03T15:43:34;5.60;43.30
20057;DHT22;10189;49.546;7.906;2023-04-03T15:46:00;5.70;44.50
20057;DHT22;10189;49.546;7.906;2023-04-03T15:48:28;5.70;43.10
20057;DHT22;10189;49.546;7.906;2023-04-03T15:50:54;5.80;42.60
20057;DHT22;10189;49.546;7.906;2023-04-03T15:53:20;5.70;42.70
20057;DHT22;10189;49.546;7.906;2023-04-03T15:55:46;5.70;42.40
20057;DHT22;10189;49.546;7.906;2023-04-03T15:58:12;5.80;43.90
20057;DHT22;10189;49.546;7.906;2023-04-03T16:00:38;5.70;43.00
20057;DHT22;10189;49.546;7.906;2023-04-03T16:03:08;5.70;45.50
20057;DHT22;10189;49.546;7.906;2023-04-03T16:05:38;5.60;48.90
20057;DHT22;10189;49.546;7.906;2023-04-03T16:08:05;5.50;49.70
20057;DHT22;10189;49.546;7.906;2023-04-03T16:10:34;5.60;49.60
20057;DHT22;10189;49.546;7.906;2023-04-03T16:13:00;5.60;49.80
20057;DHT22;10189;49.546;7.906;2023-04-03T16:15:26;5.70;49.50
20057;DHT22;10189;49.546;7.906;2023-04-03T16:17:53;5.60;49.70
20057;DHT22;10189;49.546;7.906;2023-04-03T16:20:20;5.50;50.60
20057;DHT22;10189;49.546;7.906;2023-04-03T16:22:48;5.50;51.20
20057;DHT22;10189;49.546;7.906;2023-04-03T16:25:14;5.30;52.20
20057;DHT22;10189;49.546;7.906;2023-04-03T16:27:40;5.30;51.60
20057;DHT22;10189;49.546;7.906;2023-04-03T16:30:07;5.40;51.80
20057;DHT22;10189;49.546;7.906;2023-04-03T16:32:34;5.50;51.70
20057;DHT22;10189;49.546;7.906;2023-04-03T16:35:01;5.50;51.10
20057;DHT22;10189;49.546;7.906;2023-04-03T16:37:28;5.60;51.60
20057;DHT22;10189;49.546;7.906;2023-04-03T16:39:54;6.00;50.10
20057;DHT22;10189;49.546;7.906;2023-04-03T16:42:20;6.30;49.00
20057;DHT22;10189;49.546;7.906;2023-04-03T16:44:46;6.40;48.30
20057;DHT22;10189;49.546;7.906;2023-04-03T16:47:12;6.50;48.50
20057;DHT22;10189;49.546;7.906;2023-04-03T16:49:39;6.60;47.90
20057;DHT22;10189;49.546;7.906;2023-04-03T16:52:05;6.70;47.90
20057;DHT22;10189;49.546;7.906;2023-04-03T16:54:32;6.80;47.80
20057;DHT22;10189;49.546;7.906;2023-04-03T16:56:58;6.70;47.10
20057;DHT22;10189;49.546;7.906;2023-04-03T16:59:24;6.50;47.60
20057;DHT22;10189;49.546;7.906;2023-04-03T17:01:50;6.20;48.30
20057;DHT22;10189;49.546;7.906;2023-04-03T17:04:16;5.80;49.70
20057;DHT22;10189;49.546;7.906;2023-04-03T17:06:42;5.60;49.60
20057;DHT22;10189;49.546;7.906;2023-04-03T17:09:08;5.40;50.30
20057;DHT22;10189;49.546;7.906;2023-04-03T17:11:35;5.30;51.10
20057;DHT22;10189;49.546;7.906;2023-04-03T17:14:01;5.00;51.90
20057;DHT22;10189;49.546;7.906;2023-04-03T17:16:30;4.80;52.70
20057;DHT22;10189;49.546;7.906;2023-04-03T17:18:58;4.60;53.10
20057;DHT22;10189;49.546;7.906;2023-04-03T17:21:25;4.50;52.80
20057;DHT22;10189;49.546;7.906;2023-04-03T17:23:55;4.40;53.00
20057;DHT22;10189;49.546;7.906;2023-04-03T17:26:26;4.30;53.50